Time;durP1;ratioP1;P1;durP2;ratioP2;P2;SDS_P1;SDS_P2;PMS_P1;PMS_P2;Temp;Humidity;BMP_temperature;BMP_pressure;BME280_temperature;BME280_humidity;BME280_pressure;Samples;Min_cycle;Max_cycle;Signal;HPM_P1;HPM_P2
2021/10/23 00:00:20;;;;;;;3.42;2.42;;;20.00;52.70;;;;;;5045017;28;20101;-61
2021/10/23 00:02:46;;;;;;;4.18;2.45;;;20.00;52.70;;;;;;5055713;28;20053;-60
2021/10/23 00:05:12;;;;;;;2.30;1.77;;;20.00;52.80;;;;;;5041755;28;20033;-60
2021/10/23 00:07:37;;;;;;;4.40;2.40;;;20.00;52.80;;;;;;5039183;28;20094;-60
2021/10/23 00:10:04;;;;;;;2.78;2.08;;;20.00;52.80;;;;;;5047703;28;20031;-61
2021/10/23 00:12:30;;;;;;;4.18;2.20;;;19.90;52.80;;;;;;5051863;28;20480;-61
2021/10/23 00:14:57;;;;;;;3.33;2.10;;;20.00;52.90;;;;;;5046970;28;20017;-61
2021/10/23 00:17:23;;;;;;;4.00;2.20;;;19.90;52.80;;;;;;5052124;28;20053;-62
2021/10/23 00:19:49;;;;;;;2.80;2.03;;;19.90;52.90;;;;;;5052765;28;20603;-61
2021/10/23 00:22:15;;;;;;;4.22;2.28;;;19.90;52.90;;;;;;5040892;28;20028;-61
2021/10/23 00:24:41;;;;;;;2.85;1.83;;;19.90;53.00;;;;;;5049879;28;20030;-61
2021/10/23 00:27:07;;;;;;;3.08;2.15;;;19.90;53.00;;;;;;5039312;28;20018;-61
2021/10/23 00:29:33;;;;;;;3.50;2.20;;;19.90;53.00;;;;;;5053534;28;20044;-61
2021/10/23 00:31:58;;;;;;;2.95;2.08;;;19.80;52.90;;;;;;5058978;28;20025;-61
2021/10/23 00:34:24;;;;;;;3.22;2.00;;;19.90;53.10;;;;;;5057766;28;20086;-61
2021/10/23 00:36:50;;;;;;;3.05;2.05;;;19.80;53.10;;;;;;5052875;28;20021;-61
2021/10/23 00:39:16;;;;;;;4.07;2.28;;;19.80;53.00;;;;;;5055816;28;20492;-61
2021/10/23 00:41:41;;;;;;;2.95;2.10;;;19.80;53.10;;;;;;5052851;28;20024;-61
2021/10/23 00:44:30;;;;;;;3.80;2.38;;;19.80;53.10;;;;;;5057497;28;20039;-61
2021/10/23 00:47:00;;;;;;;5.55;2.20;;;19.80;53.10;;;;;;5058599;28;20022;-61
2021/10/23 00:49:26;;;;;;;3.35;1.90;;;19.80;53.10;;;;;;5054120;28;20112;-61
2021/10/23 00:51:52;;;;;;;3.70;2.20;;;19.80;53.10;;;;;;5044230;28;20068;-62
2021/10/23 00:54:19;;;;;;;2.88;2.20;;;19.70;53.10;;;;;;5058399;28;20029;-61
2021/10/23 00:56:45;;;;;;;3.13;2.17;;;19.70;53.00;;;;;;5058053;28;20032;-61
2021/10/23 00:59:11;;;;;;;3.25;2.08;;;19.70;53.10;;;;;;5042207;28;20398;-61
2021/10/23 01:01:37;;;;;;;3.55;2.03;;;19.70;53.20;;;;;;5057095;28;20088;-61
2021/10/23 01:04:03;;;;;;;4.13;2.20;;;19.70;53.10;;;;;;5050377;28;20029;-61
2021/10/23 01:06:28;;;;;;;2.15;1.90;;;19.70;53.50;;;;;;5055479;28;20037;-61
2021/10/23 01:08:54;;;;;;;4.25;2.30;;;19.70;53.20;;;;;;5057420;28;20029;-61
2021/10/23 01:11:20;;;;;;;3.15;2.10;;;19.70;53.20;;;;;;5041467;28;20473;-61
2021/10/23 01:13:46;;;;;;;3.80;2.05;;;19.60;53.10;;;;;;5048828;28;20021;-61
2021/10/23 01:16:13;;;;;;;3.38;2.00;;;19.60;53.10;;;;;;5052517;28;20507;-63
2021/10/23 01:18:43;;;;;;;3.30;2.13;;;19.60;53.20;;;;;;5051598;28;20040;-63
2021/10/23 01:21:09;;;;;;;3.45;2.05;;;19.60;53.10;;;;;;5052266;28;20032;-63
2021/10/23 01:23:35;;;;;;;3.47;2.10;;;19.60;53.20;;;;;;5046541;28;20017;-63
2021/10/23 01:26:03;;;;;;;3.92;2.25;;;19.60;53.20;;;;;;5045445;28;20484;-63
2021/10/23 01:28:29;;;;;;;4.72;2.00;;;19.60;53.10;;;;;;5041557;28;20112;-63
2021/10/23 01:30:55;;;;;;;4.97;2.20;;;19.60;53.20;;;;;;5037724;28;20053;-63
2021/10/23 01:33:22;;;;;;;3.60;2.00;;;19.60;53.20;;;;;;5049237;28;20033;-63
2021/10/23 01:35:48;;;;;;;4.18;2.25;;;19.60;53.10;;;;;;5047852;28;20480;-63
2021/10/23 01:38:14;;;;;;;4.10;2.10;;;19.60;53.20;;;;;;5038397;28;20033;-63
2021/10/23 01:40:40;;;;;;;3.58;2.10;;;19.50;53.10;;;;;;5037527;28;20048;-63
2021/10/23 01:43:06;;;;;;;2.53;1.80;;;19.50;53.20;;;;;;5046626;28;20028;-63
2021/10/23 01:45:32;;;;;;;4.15;2.08;;;19.50;53.20;;;;;;5044169;28;20025;-63
2021/10/23 01:47:59;;;;;;;2.75;2.20;;;19.50;53.20;;;;;;5050220;28;20116;-63
2021/10/23 01:50:26;;;;;;;3.22;2.30;;;19.50;53.20;;;;;;5049352;28;20036;-63
2021/10/23 01:52:53;;;;;;;3.30;2.30;;;19.50;53.30;;;;;;5041774;28;20032;-63
2021/10/23 01:55:19;;;;;;;4.75;2.25;;;19.50;53.20;;;;;;5037828;28;20041;-63
2021/10/23 01:57:46;;;;;;;3.53;2.22;;;19.50;53.30;;;;;;5048950;28;20044;-63
2021/10/23 02:00:13;;;;;;;3.38;2.25;;;19.40;53.20;;;;;;5055187;28;20082;-63
2021/10/23 02:02:40;;;;;;;3.97;2.17;;;19.50;53.30;;;;;;5050923;28;20109;-63
2021/10/23 02:05:06;;;;;;;3.20;2.10;;;19.40;53.20;;;;;;5057156;28;20045;-63
2021/10/23 02:07:32;;;;;;;3.78;2.28;;;19.40;53.20;;;;;;5057399;28;20021;-63
2021/10/23 02:09:58;;;;;;;4.05;2.13;;;19.40;53.30;;;;;;5043541;28;20072;-63
2021/10/23 02:12:24;;;;;;;2.50;1.65;;;19.40;53.20;;;;;;5039009;28;20032;-63
2021/10/23 02:14:50;;;;;;;3.28;1.95;;;19.40;53.40;;;;;;5042498;28;20104;-63
2021/10/23 02:17:15;;;;;;;3.05;1.90;;;19.40;53.30;;;;;;5052752;28;20025;-63
2021/10/23 02:19:41;;;;;;;3.63;2.13;;;19.40;53.30;;;;;;5038071;28;20041;-63
2021/10/23 02:22:07;;;;;;;3.40;2.17;;;19.30;53.30;;;;;;5047965;28;20029;-63
2021/10/23 02:24:33;;;;;;;2.70;1.92;;;19.40;53.30;;;;;;5043271;28;20036;-63
2021/10/23 02:26:59;;;;;;;3.95;2.20;;;19.40;53.40;;;;;;5055143;28;20029;-63
2021/10/23 02:29:25;;;;;;;3.20;2.33;;;19.30;53.30;;;;;;5049050;28;20029;-63
2021/10/23 02:31:51;;;;;;;3.35;2.20;;;19.30;53.40;;;;;;5040328;28;20029;-63
2021/10/23 02:34:17;;;;;;;5.00;2.40;;;19.30;53.40;;;;;;5055854;28;20276;-63
2021/10/23 02:36:43;;;;;;;3.22;2.00;;;19.30;53.40;;;;;;5041880;28;20081;-63
2021/10/23 02:39:09;;;;;;;3.35;2.30;;;19.30;53.30;;;;;;5058161;28;20029;-63
2021/10/23 02:41:34;;;;;;;4.15;2.28;;;19.30;53.30;;;;;;5060112;28;20028;-63
2021/10/23 02:44:00;;;;;;;3.45;2.10;;;19.30;53.30;;;;;;5055376;28;20071;-63
2021/10/23 02:46:26;;;;;;;4.32;2.13;;;19.30;53.40;;;;;;5040771;28;20021;-63
2021/10/23 02:48:53;;;;;;;3.33;2.10;;;19.30;53.40;;;;;;5048803;28;20025;-63
2021/10/23 02:51:19;;;;;;;3.55;1.85;;;19.30;53.40;;;;;;5045847;28;20469;-63
2021/10/23 02:53:45;;;;;;;3.25;2.00;;;19.30;54.30;;;;;;5047748;28;20049;-63
2021/10/23 02:56:11;;;;;;;4.05;2.10;;;19.30;53.40;;;;;;5058711;28;20096;-63
2021/10/23 02:58:36;;;;;;;2.63;1.90;;;19.30;53.30;;;;;;5060356;28;20109;-63
2021/10/23 03:01:04;;;;;;;2.70;2.00;;;19.30;53.40;;;;;;5052634;28;20033;-63
2021/10/23 03:03:29;;;;;;;2.85;1.90;;;19.20;53.40;;;;;;5050838;28;20034;-63
2021/10/23 03:05:55;;;;;;;4.10;2.10;;;19.20;53.30;;;;;;5058088;28;20029;-64
2021/10/23 03:08:21;;;;;;;3.58;2.10;;;19.20;53.30;;;;;;5060083;28;20118;-63
2021/10/23 03:10:47;;;;;;;3.25;1.90;;;19.20;53.40;;;;;;5044456;28;20041;-63
2021/10/23 03:13:12;;;;;;;2.92;1.90;;;19.20;53.40;;;;;;5053441;28;20029;-63
2021/10/23 03:15:38;;;;;;;2.30;1.90;;;19.20;53.40;;;;;;5044254;28;20040;-63
2021/10/23 03:18:04;;;;;;;3.10;2.13;;;19.20;53.40;;;;;;5040349;28;20083;-63
2021/10/23 03:20:30;;;;;;;2.50;1.95;;;19.20;53.50;;;;;;5047465;28;20025;-63
2021/10/23 03:22:56;;;;;;;3.55;1.85;;;19.20;53.50;;;;;;5055881;28;20590;-63
2021/10/23 03:25:22;;;;;;;2.63;1.92;;;19.20;53.40;;;;;;5048302;28;20108;-63
2021/10/23 03:27:47;;;;;;;2.75;1.90;;;19.20;53.40;;;;;;5040241;28;20025;-63
2021/10/23 03:30:13;;;;;;;2.70;1.98;;;19.20;53.50;;;;;;5047696;28;20036;-63
2021/10/23 03:32:39;;;;;;;3.75;1.98;;;19.10;53.50;;;;;;5044479;28;20461;-63
2021/10/23 03:35:05;;;;;;;3.45;1.88;;;19.10;53.50;;;;;;5058094;28;20029;-63
2021/10/23 03:37:33;;;;;;;3.55;2.00;;;19.10;53.50;;;;;;5060096;28;20017;-63
2021/10/23 03:40:00;;;;;;;3.25;2.05;;;19.10;54.50;;;;;;5049938;28;20433;-63
2021/10/23 03:42:26;;;;;;;3.05;2.08;;;19.10;53.60;;;;;;5058870;28;20066;-63
2021/10/23 03:44:53;;;;;;;3.67;2.30;;;19.10;53.60;;;;;;5052087;28;20029;-63
2021/10/23 03:47:18;;;;;;;3.65;2.08;;;19.10;53.50;;;;;;5040741;28;20025;-63
2021/10/23 03:49:45;;;;;;;2.78;1.98;;;19.10;53.60;;;;;;5055140;28;20036;-63
2021/10/23 03:52:12;;;;;;;4.43;2.17;;;19.10;53.60;;;;;;5048494;28;20488;-63
2021/10/23 03:54:39;;;;;;;2.90;2.03;;;19.10;53.70;;;;;;5059626;28;20064;-63
2021/10/23 03:57:04;;;;;;;3.47;2.05;;;19.10;53.60;;;;;;5053836;28;20175;-64
2021/10/23 03:59:31;;;;;;;4.47;2.20;;;19.10;53.60;;;;;;5059294;28;20064;-63
2021/10/23 04:01:58;;;;;;;3.50;2.20;;;19.10;53.60;;;;;;5052579;28;20033;-63
2021/10/23 04:04:25;;;;;;;2.42;1.90;;;19.00;53.60;;;;;;5043247;28;20065;-63
2021/10/23 04:06:51;;;;;;;3.63;2.10;;;19.10;53.60;;;;;;5039380;28;20022;-63
2021/10/23 04:09:17;;;;;;;3.15;1.90;;;19.10;53.60;;;;;;5040263;28;20477;-63
2021/10/23 04:11:43;;;;;;;2.90;2.03;;;19.00;53.60;;;;;;5043348;28;20439;-63
2021/10/23 04:14:09;;;;;;;2.65;1.83;;;19.00;53.50;;;;;;5040524;28;20034;-64
2021/10/23 04:16:34;;;;;;;2.95;2.20;;;19.00;53.60;;;;;;5045728;28;20558;-64
2021/10/23 04:19:00;;;;;;;4.18;2.05;;;19.00;53.60;;;;;;5052079;28;20082;-63
2021/10/23 04:21:26;;;;;;;2.92;2.00;;;19.00;53.60;;;;;;5042537;28;20026;-63
2021/10/23 04:23:52;;;;;;;3.00;2.10;;;19.00;53.60;;;;;;5054481;28;20028;-63
2021/10/23 04:26:19;;;;;;;3.50;2.03;;;19.00;53.60;;;;;;5055010;28;20096;-63
2021/10/23 04:28:45;;;;;;;2.88;2.20;;;19.00;53.60;;;;;;5053523;28;20033;-64
2021/10/23 04:31:11;;;;;;;2.83;2.00;;;19.00;53.70;;;;;;5051468;28;20079;-63
2021/10/23 04:33:37;;;;;;;4.05;2.35;;;19.00;53.80;;;;;;5053029;28;20033;-63
2021/10/23 04:36:03;;;;;;;2.92;2.05;;;19.00;53.80;;;;;;5057832;28;20439;-64
2021/10/23 04:38:29;;;;;;;2.42;2.00;;;19.00;53.80;;;;;;5042276;28;20075;-63
2021/10/23 04:40:55;;;;;;;4.13;2.10;;;19.00;53.80;;;;;;5043019;28;20017;-63
2021/10/23 04:43:21;;;;;;;3.78;2.00;;;19.00;53.80;;;;;;5038851;28;20500;-63
2021/10/23 04:45:46;;;;;;;2.25;1.70;;;18.90;53.80;;;;;;5039627;28;20009;-63
2021/10/23 04:48:12;;;;;;;3.53;2.15;;;19.00;54.10;;;;;;5039605;28;20100;-63
2021/10/23 04:50:38;;;;;;;3.05;1.80;;;19.00;53.90;;;;;;5056501;28;20064;-64
2021/10/23 04:53:04;;;;;;;2.72;1.90;;;18.90;54.10;;;;;;5058677;28;20400;-62
2021/10/23 04:55:30;;;;;;;3.45;2.15;;;18.90;54.00;;;;;;5048920;28;20026;-63
2021/10/23 04:57:57;;;;;;;2.88;1.98;;;19.00;54.10;;;;;;5037920;28;20060;-63
2021/10/23 05:00:24;;;;;;;3.83;1.98;;;18.90;54.20;;;;;;5053365;28;20419;-62
2021/10/23 05:02:50;;;;;;;2.00;1.50;;;19.00;54.40;;;;;;5043726;28;20033;-63
2021/10/23 05:05:16;;;;;;;2.75;1.98;;;19.00;54.40;;;;;;5043089;28;20028;-62
2021/10/23 05:07:42;;;;;;;3.85;2.00;;;18.90;55.30;;;;;;5048453;28;20496;-63
2021/10/23 05:10:09;;;;;;;5.95;1.90;;;19.00;54.60;;;;;;5057981;28;20059;-61
2021/10/23 05:12:34;;;;;;;3.90;1.95;;;19.00;54.70;;;;;;5048330;28;20048;-63
2021/10/23 05:15:00;;;;;;;5.95;2.05;;;18.90;54.60;;;;;;5038077;28;20025;-62
2021/10/23 05:17:26;;;;;;;5.32;2.05;;;18.90;54.80;;;;;;5040296;28;20037;-63
2021/10/23 05:19:52;;;;;;;4.53;2.22;;;19.00;55.00;;;;;;5037733;28;20025;-61
2021/10/23 05:22:18;;;;;;;6.05;1.88;;;19.00;55.00;;;;;;5050518;28;20029;-63
2021/10/23 05:24:44;;;;;;;5.72;1.95;;;19.00;55.20;;;;;;5057489;28;20453;-63
2021/10/23 05:27:10;;;;;;;6.72;2.28;;;19.00;55.20;;;;;;5052990;28;20048;-63
2021/10/23 05:29:36;;;;;;;7.53;2.40;;;19.00;54.90;;;;;;5038352;28;20026;-62
2021/10/23 05:32:01;;;;;;;6.85;2.30;;;19.00;55.20;;;;;;5047327;28;20025;-63
2021/10/23 05:34:27;;;;;;;10.93;2.60;;;19.00;55.90;;;;;;5038014;28;20048;-61
2021/10/23 05:36:53;;;;;;;7.43;2.03;;;19.00;55.50;;;;;;5036831;28;20033;-62
2021/10/23 05:39:19;;;;;;;7.05;2.10;;;19.00;55.40;;;;;;5043200;28;20190;-62
2021/10/23 05:41:45;;;;;;;10.40;2.25;;;19.00;54.70;;;;;;5037638;28;20043;-63
2021/10/23 05:44:11;;;;;;;11.55;2.30;;;19.00;54.80;;;;;;5036943;28;20025;-63
2021/10/23 05:46:37;;;;;;;8.95;2.50;;;19.00;55.20;;;;;;5037031;28;20079;-63
2021/10/23 05:49:03;;;;;;;7.43;2.35;;;19.00;55.20;;;;;;5034181;28;20063;-63
2021/10/23 05:51:29;;;;;;;6.03;2.38;;;19.00;55.10;;;;;;5035544;28;20025;-64
2021/10/23 05:53:54;;;;;;;6.60;2.38;;;19.00;54.90;;;;;;5035283;28;20021;-63
2021/10/23 05:56:21;;;;;;;9.52;2.42;;;19.00;55.00;;;;;;5035404;28;20476;-64
2021/10/23 05:58:46;;;;;;;5.32;2.20;;;19.00;55.00;;;;;;5034742;28;20088;-63
2021/10/23 06:01:12;;;;;;;5.32;2.20;;;19.00;54.90;;;;;;5034906;28;20022;-63
2021/10/23 06:03:39;;;;;;;4.57;2.10;;;19.00;54.80;;;;;;5035888;28;20030;-64
2021/10/23 06:06:07;;;;;;;4.32;2.25;;;19.00;54.90;;;;;;5036661;28;20024;-63
2021/10/23 06:08:34;;;;;;;4.95;2.00;;;19.00;55.00;;;;;;5037295;28;20034;-63
2021/10/23 06:11:00;;;;;;;6.32;2.50;;;19.00;55.20;;;;;;5036950;28;20029;-65
2021/10/23 06:13:26;;;;;;;4.22;2.00;;;19.00;55.20;;;;;;5036832;28;20516;-64
2021/10/23 06:15:52;;;;;;;4.95;2.10;;;19.00;55.20;;;;;;5036807;28;20029;-64
2021/10/23 06:18:19;;;;;;;5.25;2.10;;;19.00;55.00;;;;;;5037882;28;20076;-64
2021/10/23 06:20:46;;;;;;;5.28;2.00;;;19.00;54.90;;;;;;5036352;28;20056;-64
2021/10/23 06:23:12;;;;;;;4.88;2.20;;;19.00;55.20;;;;;;5037088;28;20022;-63
2021/10/23 06:25:38;;;;;;;3.45;2.13;;;19.00;54.90;;;;;;5036813;28;20513;-64
2021/10/23 06:28:04;;;;;;;5.03;2.20;;;19.00;55.10;;;;;;5037062;28;20030;-64
2021/10/23 06:30:30;;;;;;;5.40;1.90;;;19.00;55.30;;;;;;5036796;28;20034;-64
2021/10/23 06:32:57;;;;;;;2.90;1.85;;;19.00;55.40;;;;;;5036733;28;20113;-63
2021/10/23 06:35:23;;;;;;;6.03;2.38;;;19.00;55.20;;;;;;5036995;28;20052;-64
2021/10/23 06:37:50;;;;;;;3.65;2.10;;;19.00;55.10;;;;;;5036834;28;20439;-64
2021/10/23 06:40:16;;;;;;;3.65;1.75;;;19.00;55.10;;;;;;5037045;28;20014;-63
2021/10/23 06:42:44;;;;;;;3.10;1.90;;;19.00;55.00;;;;;;5036845;28;20104;-64
2021/10/23 06:45:14;;;;;;;3.45;1.77;;;19.00;55.10;;;;;;5036898;28;20021;-63
2021/10/23 06:47:40;;;;;;;3.88;1.92;;;19.00;55.10;;;;;;5037159;28;20025;-63
2021/10/23 06:50:08;;;;;;;4.57;2.17;;;19.00;55.20;;;;;;5036520;28;20021;-63
2021/10/23 06:52:34;;;;;;;4.65;1.80;;;19.00;55.10;;;;;;5036826;28;20030;-63
2021/10/23 06:55:00;;;;;;;4.60;2.00;;;19.00;55.10;;;;;;5037032;28;20032;-63
2021/10/23 06:57:26;;;;;;;5.20;2.17;;;19.00;55.60;;;;;;5036788;28;20412;-63
2021/10/23 06:59:52;;;;;;;7.10;2.20;;;19.00;55.30;;;;;;5037214;28;20041;-64
2021/10/23 07:02:18;;;;;;;5.25;2.05;;;19.00;55.30;;;;;;5036970;28;20497;-64
2021/10/23 07:04:44;;;;;;;6.22;2.40;;;19.00;55.20;;;;;;5036890;28;20149;-63
2021/10/23 07:07:10;;;;;;;3.22;1.90;;;19.00;55.10;;;;;;5037088;28;20052;-63
2021/10/23 07:09:36;;;;;;;4.72;1.85;;;19.00;55.10;;;;;;5037171;28;20026;-63
2021/10/23 07:12:02;;;;;;;4.55;1.92;;;19.00;55.10;;;;;;5037049;28;20037;-64
2021/10/23 07:14:28;;;;;;;2.67;1.88;;;19.00;55.10;;;;;;5036906;28;20500;-64
2021/10/23 07:16:54;;;;;;;4.85;1.98;;;19.00;55.10;;;;;;5036724;28;20033;-64
2021/10/23 07:19:19;;;;;;;2.65;1.90;;;19.00;55.10;;;;;;5040534;28;20045;-65
2021/10/23 07:21:45;;;;;;;4.82;2.15;;;19.00;55.10;;;;;;5040567;28;20022;-65
2021/10/23 07:24:11;;;;;;;5.15;1.92;;;19.00;55.30;;;;;;5040665;28;20018;-65
2021/10/23 07:26:37;;;;;;;3.90;2.00;;;19.00;55.40;;;;;;5040419;28;20093;-65
2021/10/23 07:29:04;;;;;;;4.05;1.90;;;19.00;55.20;;;;;;5040502;28;20030;-64
2021/10/23 07:31:29;;;;;;;3.80;2.10;;;19.00;55.40;;;;;;5040428;28;20039;-65
2021/10/23 07:33:55;;;;;;;6.45;2.38;;;19.00;55.70;;;;;;5040116;28;20025;-65
2021/10/23 07:36:21;;;;;;;7.72;2.55;;;19.00;55.20;;;;;;5040025;28;20400;-64
2021/10/23 07:38:48;;;;;;;7.10;1.85;;;18.90;55.10;;;;;;5039855;28;20029;-64
2021/10/23 07:41:14;;;;;;;7.78;2.22;;;18.90;55.20;;;;;;5039286;28;20029;-65
2021/10/23 07:43:40;;;;;;;7.75;2.35;;;19.00;55.30;;;;;;5040060;28;20508;-65
2021/10/23 07:46:06;;;;;;;6.90;2.10;;;19.00;55.30;;;;;;5039873;28;20074;-64
2021/10/23 07:48:34;;;;;;;9.98;2.05;;;19.00;55.30;;;;;;5038743;28;20100;-64
2021/10/23 07:51:00;;;;;;;7.97;2.10;;;19.00;55.20;;;;;;5039476;28;20026;-64
2021/10/23 07:53:26;;;;;;;4.93;2.40;;;19.00;55.20;;;;;;5039460;28;20385;-64
2021/10/23 07:55:51;;;;;;;6.20;2.05;;;19.00;55.20;;;;;;5038771;28;20061;-64
2021/10/23 07:58:17;;;;;;;7.15;2.20;;;19.00;55.20;;;;;;5039135;28;20502;-64
2021/10/23 08:00:43;;;;;;;4.85;2.20;;;19.00;55.30;;;;;;5039506;28;20409;-64
2021/10/23 08:03:09;;;;;;;3.35;1.80;;;19.00;55.30;;;;;;5039554;28;20045;-64
2021/10/23 08:05:37;;;;;;;6.07;2.30;;;19.00;55.30;;;;;;5039264;28;20484;-63
2021/10/23 08:08:04;;;;;;;3.70;2.08;;;19.00;55.30;;;;;;5039330;28;20076;-64
2021/10/23 08:10:31;;;;;;;4.82;2.00;;;19.00;55.20;;;;;;5039270;28;20053;-63
2021/10/23 08:12:58;;;;;;;3.78;2.00;;;19.00;55.20;;;;;;5039090;28;20028;-63
2021/10/23 08:15:25;;;;;;;3.45;2.00;;;19.00;55.40;;;;;;5039094;28;20061;-63
2021/10/23 08:17:52;;;;;;;4.65;1.90;;;19.00;55.20;;;;;;5039533;28;20033;-63
2021/10/23 08:20:18;;;;;;;7.88;1.98;;;19.00;55.20;;;;;;5039995;28;20021;-62
2021/10/23 08:22:44;;;;;;;2.95;1.90;;;19.00;55.20;;;;;;5039670;28;20024;-62
2021/10/23 08:25:12;;;;;;;4.45;1.98;;;19.00;55.20;;;;;;5039598;28;20028;-63
2021/10/23 08:27:40;;;;;;;3.85;2.17;;;19.00;55.30;;;;;;5038896;28;20088;-63
2021/10/23 08:30:08;;;;;;;3.15;1.73;;;19.00;55.30;;;;;;5038629;28;20048;-63
2021/10/23 08:32:34;;;;;;;2.97;1.88;;;19.00;55.30;;;;;;5039028;28;20021;-62
2021/10/23 08:35:00;;;;;;;5.82;1.90;;;19.00;55.30;;;;;;5038933;28;20025;-63
2021/10/23 08:37:27;;;;;;;5.13;1.90;;;19.00;55.30;;;;;;5038633;28;20363;-64
2021/10/23 08:39:52;;;;;;;3.70;1.92;;;18.90;55.50;;;;;;5038577;28;20034;-63
2021/10/23 08:42:19;;;;;;;5.47;1.80;;;19.00;55.30;;;;;;5038675;28;20105;-63
2021/10/23 08:44:45;;;;;;;3.13;1.67;;;18.90;55.60;;;;;;5038489;28;20075;-64
2021/10/23 08:47:14;;;;;;;3.72;1.80;;;19.00;55.50;;;;;;5038449;28;20024;-63
2021/10/23 08:49:40;;;;;;;5.03;1.95;;;18.90;55.40;;;;;;5038520;28;20036;-66
2021/10/23 08:52:06;;;;;;;4.03;1.77;;;18.90;55.50;;;;;;5038236;28;20056;-66
2021/10/23 08:54:32;;;;;;;4.97;1.73;;;18.90;55.60;;;;;;5038533;28;20057;-65
2021/10/23 08:56:59;;;;;;;6.22;2.40;;;18.90;55.80;;;;;;5038345;28;20124;-65
2021/10/23 08:59:32;;;;;;;4.90;1.65;;;18.90;55.90;;;;;;5038513;28;20040;-66
2021/10/23 09:02:00;;;;;;;4.43;2.00;;;18.90;56.00;;;;;;5038282;28;20025;-66
2021/10/23 09:04:30;;;;;;;6.20;1.95;;;18.90;55.70;;;;;;5038904;28;20385;-66
2021/10/23 09:07:26;;;;;;;4.00;1.70;;;18.90;55.90;;;;;;5039078;28;20116;-66
2021/10/23 09:09:56;;;;;;;3.92;1.92;;;18.90;55.90;;;;;;5041870;28;20037;-66
2021/10/23 09:12:31;;;;;;;4.47;1.90;;;18.90;56.00;;;;;;5038788;28;20024;-66
2021/10/23 09:15:13;;;;;;;3.13;1.80;;;18.90;55.90;;;;;;5038539;28;20432;-66
2021/10/23 09:17:40;;;;;;;3.50;1.80;;;18.90;55.90;;;;;;5037118;28;20389;-66
2021/10/23 09:20:11;;;;;;;4.05;1.73;;;18.90;55.90;;;;;;5037745;28;20030;-66
2021/10/23 09:22:42;;;;;;;3.45;1.88;;;18.80;55.70;;;;;;5038165;28;20029;-66
2021/10/23 09:25:12;;;;;;;5.03;1.90;;;18.80;55.80;;;;;;5038376;28;20033;-66
2021/10/23 09:28:01;;;;;;;4.50;1.80;;;18.80;55.80;;;;;;5038464;28;20033;-66
2021/10/23 09:30:33;;;;;;;2.90;1.70;;;18.80;55.80;;;;;;5038139;28;20087;-66
2021/10/23 09:33:05;;;;;;;3.00;1.88;;;18.80;55.90;;;;;;5037979;28;20048;-66
2021/10/23 09:35:31;;;;;;;2.10;1.40;;;18.80;55.90;;;;;;5037915;28;20032;-65
2021/10/23 09:38:00;;;;;;;4.15;1.90;;;18.80;55.90;;;;;;5038154;28;20040;-67
2021/10/23 09:40:28;;;;;;;2.42;1.60;;;18.70;56.80;;;;;;5037411;28;20025;-66
2021/10/23 09:43:12;;;;;;;3.10;1.80;;;18.70;55.90;;;;;;5037999;28;20481;-67
2021/10/23 09:45:59;;;;;;;3.03;1.93;;;18.70;55.80;;;;;;5038000;28;20021;-66
2021/10/23 09:48:37;;;;;;;3.42;1.70;;;18.70;55.90;;;;;;5037987;28;20055;-66
2021/10/23 09:51:22;;;;;;;3.50;1.70;;;18.70;55.90;;;;;;5038135;28;20033;-66
2021/10/23 09:53:54;;;;;;;2.25;1.60;;;18.70;55.90;;;;;;5038056;28;20095;-66
2021/10/23 09:56:31;;;;;;;4.00;1.70;;;18.70;55.90;;;;;;5037855;28;20033;-65
2021/10/23 09:59:00;;;;;;;7.28;2.00;;;18.70;55.90;;;;;;5037353;28;20089;-66
2021/10/23 10:01:31;;;;;;;1.98;1.60;;;18.70;56.00;;;;;;5037932;28;20037;-66
2021/10/23 10:03:58;;;;;;;3.55;1.70;;;18.70;56.00;;;;;;5037780;28;20071;-66
2021/10/23 10:06:26;;;;;;;3.08;1.50;;;18.70;56.00;;;;;;5037719;28;20022;-66
2021/10/23 10:08:53;;;;;;;4.55;1.58;;;18.70;56.00;;;;;;5037743;28;20030;-66
2021/10/23 10:11:22;;;;;;;2.20;1.55;;;18.70;56.00;;;;;;5037641;28;20569;-66
2021/10/23 10:13:49;;;;;;;2.95;1.52;;;18.70;56.10;;;;;;5037581;28;20026;-66
2021/10/23 10:16:15;;;;;;;2.40;1.52;;;18.70;56.10;;;;;;5037675;28;20112;-65
2021/10/23 10:18:42;;;;;;;3.15;1.60;;;18.70;56.10;;;;;;5037505;28;20030;-67
2021/10/23 10:21:17;;;;;;;2.22;1.60;;;18.70;56.00;;;;;;5037740;28;20022;-67
2021/10/23 10:23:44;;;;;;;3.50;1.45;;;18.60;55.90;;;;;;5037539;28;20040;-67
2021/10/23 10:26:34;;;;;;;2.03;1.40;;;18.60;56.00;;;;;;5037671;28;20021;-66
2021/10/23 10:29:12;;;;;;;2.08;1.30;;;18.60;56.00;;;;;;5037291;28;20076;-67
2021/10/23 10:32:17;;;;;;;3.65;1.70;;;18.60;56.00;;;;;;5037634;28;20037;-67
2021/10/23 10:37:44;;;;;;;2.30;1.63;;;18.60;56.10;;;;;;5037258;28;20032;-66
2021/10/23 10:43:00;;;;;;;4.20;1.80;;;18.60;56.20;;;;;;5038020;28;20383;-66
2021/10/23 10:45:41;;;;;;;3.53;1.67;;;18.60;56.10;;;;;;5037151;28;20539;-67
2021/10/23 10:48:22;;;;;;;4.28;1.58;;;18.60;56.10;;;;;;5037056;28;20044;-66
2021/10/23 10:51:14;;;;;;;2.42;1.75;;;18.60;56.20;;;;;;5035364;28;20083;-65
2021/10/23 10:53:41;;;;;;;2.20;1.50;;;18.60;55.90;;;;;;5041290;28;20033;-66
2021/10/23 10:56:17;;;;;;;2.53;1.42;;;18.60;56.00;;;;;;5041105;28;20098;-67
2021/10/23 10:58:52;;;;;;;3.03;1.45;;;18.60;56.10;;;;;;5040765;28;20061;-66
2021/10/23 11:01:24;;;;;;;2.92;1.42;;;18.60;56.10;;;;;;5041263;28;20452;-67
2021/10/23 11:03:56;;;;;;;3.25;1.60;;;18.60;56.30;;;;;;5040983;28;20022;-66
2021/10/23 11:06:36;;;;;;;2.38;1.50;;;18.60;56.20;;;;;;5041086;28;20060;-66
2021/10/23 11:09:09;;;;;;;3.33;1.70;;;18.60;56.30;;;;;;5040909;28;20033;-66
2021/10/23 11:11:44;;;;;;;3.40;1.45;;;18.60;56.50;;;;;;5040850;28;20477;-66
2021/10/23 11:14:31;;;;;;;3.35;1.63;;;18.60;56.30;;;;;;5040705;28;20068;-66
2021/10/23 11:16:57;;;;;;;2.55;1.38;;;18.60;56.50;;;;;;5040945;28;20033;-65
2021/10/23 11:19:23;;;;;;;3.03;1.80;;;18.60;56.50;;;;;;5040888;28;20025;-67
2021/10/23 11:21:51;;;;;;;5.95;1.58;;;18.60;56.40;;;;;;5039982;28;20028;-65
2021/10/23 11:24:17;;;;;;;6.03;1.40;;;18.60;55.90;;;;;;5038555;28;20499;-66
2021/10/23 11:26:47;;;;;;;3.53;1.65;;;18.50;55.50;;;;;;5038972;28;20017;-66
2021/10/23 11:29:27;;;;;;;3.40;1.70;;;18.60;56.00;;;;;;5039880;28;20025;-66
2021/10/23 11:31:56;;;;;;;5.15;1.70;;;18.50;56.10;;;;;;5038726;28;20033;-66
2021/10/23 11:34:30;;;;;;;3.72;1.70;;;18.50;56.20;;;;;;5039684;28;20511;-66
2021/10/23 11:37:06;;;;;;;3.95;1.60;;;18.50;56.20;;;;;;5040047;28;20030;-66
2021/10/23 11:39:36;;;;;;;2.35;1.42;;;18.50;56.30;;;;;;5039982;28;20041;-66
2021/10/23 11:42:37;;;;;;;3.10;1.20;;;18.50;56.30;;;;;;5040462;28;20029;-66
2021/10/23 11:45:12;;;;;;;2.63;1.40;;;18.50;56.30;;;;;;5049543;28;20049;-67
2021/10/23 11:47:38;;;;;;;2.85;1.80;;;18.50;56.40;;;;;;5040404;28;20032;-66
2021/10/23 11:50:16;;;;;;;1.55;1.38;;;18.50;56.40;;;;;;5040230;28;20030;-66
2021/10/23 11:52:50;;;;;;;3.53;1.70;;;18.50;56.30;;;;;;5040591;28;20032;-66
2021/10/23 11:55:35;;;;;;;;;;;18.50;56.40;;;;;;5040742;28;20021;-66
2021/10/23 11:58:04;;;;;;;3.20;1.30;;;18.50;56.30;;;;;;5039838;28;19916;-66
2021/10/23 12:00:33;;;;;;;5.13;1.77;;;18.50;56.40;;;;;;5040148;28;20093;-66
2021/10/23 12:03:03;;;;;;;3.67;1.50;;;18.50;56.50;;;;;;5039324;28;20022;-66
2021/10/23 12:05:36;;;;;;;3.90;1.40;;;18.50;56.50;;;;;;5040021;28;20033;-66
2021/10/23 12:08:19;;;;;;;2.53;1.43;;;18.50;56.50;;;;;;5039541;28;20554;-65
2021/10/23 12:11:07;;;;;;;3.97;1.65;;;18.50;56.50;;;;;;5039970;28;20248;-65
2021/10/23 12:13:45;;;;;;;2.95;1.30;;;18.50;56.40;;;;;;5039761;28;20030;-66
2021/10/23 12:16:11;;;;;;;3.50;1.80;;;18.50;56.40;;;;;;5038957;28;20463;-65
2021/10/23 12:18:38;;;;;;;3.47;1.70;;;18.50;56.50;;;;;;5039803;28;20072;-66
2021/10/23 12:21:19;;;;;;;4.78;1.52;;;18.50;56.50;;;;;;5039695;28;20032;-66
2021/10/23 12:23:53;;;;;;;3.58;1.50;;;18.50;56.50;;;;;;5039791;28;20374;-67
2021/10/23 12:26:25;;;;;;;3.75;1.50;;;18.50;56.50;;;;;;5040008;28;20022;-67
2021/10/23 12:29:03;;;;;;;2.50;1.40;;;18.50;56.50;;;;;;5039414;28;20060;-67
2021/10/23 12:31:55;;;;;;;4.90;1.40;;;18.50;56.40;;;;;;5039809;28;20079;-67
2021/10/23 12:34:21;;;;;;;3.58;1.33;;;18.60;56.40;;;;;;5044966;28;20052;-65
2021/10/23 12:36:58;;;;;;;4.68;1.48;;;18.50;56.10;;;;;;5052684;28;20393;-66
2021/10/23 12:39:28;;;;;;;7.07;1.98;;;18.60;56.10;;;;;;5046536;28;20032;-70
2021/10/23 12:41:56;;;;;;;6.55;2.03;;;18.60;56.30;;;;;;5056245;28;20021;-68
2021/10/23 12:44:26;;;;;;;4.40;1.70;;;18.60;56.30;;;;;;5056858;28;20021;-67
2021/10/23 12:46:54;;;;;;;3.35;1.73;;;18.60;56.40;;;;;;5045757;28;20485;-67
2021/10/23 12:49:21;;;;;;;4.55;1.70;;;18.60;56.40;;;;;;5059042;28;20017;-67
2021/10/23 12:51:47;;;;;;;4.50;1.70;;;18.70;56.60;;;;;;5049024;28;20052;-67
2021/10/23 12:54:16;;;;;;;2.85;1.50;;;18.70;56.60;;;;;;5039464;28;20385;-66
2021/10/23 12:56:46;;;;;;;4.22;1.92;;;18.70;56.30;;;;;;5038693;28;20034;-67
2021/10/23 12:59:12;;;;;;;3.85;1.50;;;18.80;56.40;;;;;;5038789;28;20030;-65